x

La Perouse Bank (46206) Wave Buoy

9:00 - Wed 10th Feb 2016 All times are PST. -8 hours from GMT.

  • Sig Wave height 6.2ft
  • Peak Period 10s
  • Wind
    20mph, 25mph gusts
  • Sea Temp 51°f
  • Luft Temp 51°f
  • Sea Pressure 1016.7mb
  • La Perouse Bank
  • La Perouse Bank

More Historic Weather Station data

Upgrade to MSW Pro to gain access to the past 30 days of data for over 8000 Wavebouys and Weather Stations around the globe.

Join Pro

Comparision Forecast

View Surf forecast
   
Mi 02/10 9:00 6ft 10s 20 25 mph 1016.7mb 51f 51f
8:00 6ft 10s 16 20 mph 1016.8mb 51f 51f
7:00 6ft 11s 18 20 mph 1016.6mb 50f 51f
6:00 6ft 11s 18 20 mph 1016.6mb 50f 51f
5:00 6ft 11s 18 22 mph 1016.4mb 50f 51f
4:00 6ft 11s 20 25 mph 1016.3mb 50f 50f
3:00 5.5ft 11s 20 22 mph 1016.5mb 50f 50f
2:00 5.5ft 11s 16 18 mph 1017.1mb 50f 51f
1:00 5.5ft 11s 16 18 mph 1017.5mb 50f 50f
12:00 5.5ft 11s 13 16 mph 1018.5mb 50f 51f
Di 02/09 11:00 5.5ft 12s 11 13 mph 1018.5mb 50f 51f
10:00 6ft 12s 13 16 mph 1018.5mb 50f 51f
9:00 6.5ft 12s 11 13 mph 1018.5mb 50f 51f
8:00 6ft 12s 9 11 mph 1018.2mb 50f 51f
7:00 6.5ft 12s 11 16 mph 1017.6mb 50f 51f
6:00 7ft 12s 11 13 mph 1017.9mb 50f 52f
5:00 7.5ft 13s 18 20 mph 1017.9mb 50f 53f
4:00 7ft 11s 20 25 mph 1017.7mb 50f 53f
3:00 7ft 13s 22 27 mph 1016.7mb 49f 52f
2:00 8ft 14s 25 29 mph 1016.7mb 50f 52f
1:00 8ft 13s 27 31 mph 1016.9mb 50f 52f
12:00 8ft 14s 25 31 mph 1017.5mb 51f 52f
11:00 8ft 11s 25 29 mph 1018.3mb 51f 52f
10:00 8ft 13s 25 31 mph 1018.4mb 51f 52f
9:00 9ft 13s 27 31 mph 1018.3mb 51f 52f
8:00 8ft 13s 25 29 mph 1018.6mb 51f 52f
7:00 9ft 14s 25 31 mph 1018.8mb 50f 52f
6:00 8.5ft 12s 25 31 mph 1019mb 50f 52f
5:00 9ft 14s 27 34 mph 1019mb 50f 53f
4:00 9.5ft 14s 25 29 mph 1018.7mb 50f 53f
3:00 9.5ft 12s 27 31 mph 1019.4mb 50f 53f
1:00 9.5ft 12s 22 29 mph 1019.8mb 50f 52f
12:00 10ft 14s 22 27 mph 1020.7mb 50f 52f
Mo 02/08 11:00 11ft 14s 18 22 mph 1021.9mb 50f 51f
10:00 11ft 14s 16 22 mph 1022.7mb 50f 51f
9:00 12ft 14s 16 20 mph 1023.9mb 50f 51f
8:00 12ft 14s 13 20 mph 1024.6mb 49f 51f
7:00 10.5ft 14s 16 20 mph 1024.9mb 49f 51f
6:00 11ft 13s 16 20 mph 1025.5mb 49f 51f
5:00 10.5ft 14s 16 18 mph 1026.3mb 50f 51f
4:00 11ft 14s 16 20 mph 1026.8mb 50f 51f
3:00 11ft 15s 16 20 mph 1027mb 50f 51f
2:00 10ft 16s 16 22 mph 1027.2mb 50f 51f
1:00 10ft 15s 18 22 mph 1028.1mb 50f 50f
12:00 10.5ft 17s 18 22 mph 1028.7mb 50f 50f
11:00 11.5ft 16s 18 22 mph 1029.4mb 50f 50f
10:00 11ft 17s 18 22 mph 1029.5mb 50f 50f
9:00 9.5ft 17s 16 22 mph 1029.5mb 50f 50f
8:00 9ft 16s 18 22 mph 1029.5mb 50f 49f
7:00 10ft 17s 18 22 mph 1029.7mb 50f 49f
6:00 11.5ft 17s 18 25 mph 1030mb 50f 49f
5:00 9.5ft 17s 18 25 mph 1030.1mb 50f 49f
4:00 10ft 18s 20 25 mph 1029.8mb 50f 49f
3:00 8.5ft 18s 20 25 mph 1029.7mb 50f 49f
2:00 9.5ft 17s 16 22 mph 1030.4mb 50f 49f
1:00 8ft 18s 18 25 mph 1030.5mb 50f 49f
12:00 7.5ft 18s 20 25 mph 1030.9mb 50f 49f
So 02/07 11:00 7ft 10s 22 27 mph 1031.3mb 49f 49f
10:00 7ft 12s 22 27 mph 1031.5mb 49f 49f
9:00 7ft 12s 22 29 mph 1031.8mb 49f 49f
8:00 7ft 10s 25 29 mph 1031.7mb 49f 49f
7:00  -   -  25
mph
- - 49f
6:00 8.5ft 11s 22 29 mph 1032.2mb 50f 49f
5:00 8.5ft 12s 25 31 mph 1032mb 50f 49f
4:00 8.5ft 10s 25 29 mph 1032.4mb 49f 49f
3:00 8ft 10s 27 34 mph 1032.3mb 50f 48f
2:00 8ft 11s 25 31 mph 1031.8mb 50f 48f
1:00 8ft 11s 25 27 mph 1032.3mb 50f 48f
10:00 7.5ft 12s 27 31 mph 1031.6mb 50f 48f
9:00 8ft 12s 25 29 mph 1031.2mb 50f 47f
8:00 8ft 12s 27 34 mph 1031.1mb 50f 48f
7:00 8ft 6s 27 36 mph 1030.4mb 50f 48f
6:00 8ft 12s 27 31 mph 1031.2mb 50f 48f
5:00 8ft 12s 29 36 mph 1030.6mb 50f 47f
4:00 8.5ft 13s 25 31 mph 1031mb 50f 47f
3:00 7ft 12s 29 34 mph 1029.4mb 50f 47f
2:00 8.5ft 12s 25 29 mph 1030.6mb 49f 47f
1:00 9ft 13s 22 27 mph 1031.1mb 49f 47f
12:00 9.5ft 12s 20 25 mph 1031.1mb 49f 47f
Sa 02/06 11:00 10ft 10s 22 29 mph 1030.5mb 49f 47f
10:00 10ft 11s 22 29 mph 1030.6mb 49f 47f
9:00 10.5ft 12s 22 29 mph 1031.1mb 49f 47f
8:00 10ft 12s 18 22 mph 1030.4mb 49f 48f
7:00 11.5ft 12s 18 22 mph 1030.6mb 49f 48f